Lake Alice, Washington
Current Conditions -  °F | °C
As of 12:53 PM on Tuesday 21 Oct 2014 (Local Time) from KRNT Reporting Station
Overcast Overcast  
Wind Chill: 62°   Ceiling: 7000
Heat Index: 62°   Visibility: 9mi
Dew Point: 50°   Wind: 9mph
Humidity: 65%   Direction: 190°S
Pressure: 29.92"   Gusts: 17mph
Location:  47.6631°N, 121.723°W
Report Text: KRNT 211953Z 19008G15KT 9SM FEW042 OVC070 17/10 A2992 RMK AO2 SLP137 T01670100
Loading
Personal Weather Stations






























Interactive Weather Map
Tropical Storm Tracking
New forecast layout! Learn more

10-Day Weather Forecast

Advertisements
Track Severe Weather on mobile